createdAt,value
2018-09-05T00:00:35.870Z,86.13
2018-09-05T00:01:35.896Z,85.84
2018-09-05T00:02:35.931Z,86.04
2018-09-05T00:03:56.975Z,86.04
2018-09-05T00:04:35.990Z,85.84
2018-09-05T00:05:36.020Z,85.84
2018-09-05T00:06:36.046Z,85.94
2018-09-05T00:07:36.062Z,85.94
2018-09-05T00:08:36.091Z,86.13
2018-09-05T00:09:57.148Z,86.52
2018-09-05T00:10:36.160Z,86.42
2018-09-05T00:11:36.177Z,86.42
2018-09-05T00:12:36.211Z,85.94
2018-09-05T00:13:36.234Z,85.94
2018-09-05T00:14:36.266Z,86.04
2018-09-05T00:15:57.320Z,86.52
2018-09-05T00:16:36.324Z,86.32
2018-09-05T00:17:36.356Z,86.71
2018-09-05T00:18:36.404Z,86.32
2018-09-05T00:19:36.415Z,86.61
2018-09-05T00:20:36.441Z,86.32
2018-09-05T00:21:57.480Z,86.42
2018-09-05T00:22:36.521Z,86.42
2018-09-05T00:23:36.530Z,86.90
2018-09-05T00:24:36.548Z,86.80
2018-09-05T00:25:36.592Z,86.99
2018-09-05T00:26:36.615Z,87.38
2018-09-05T00:27:57.658Z,88.06
2018-09-05T00:28:36.670Z,87.67
2018-09-05T00:29:36.695Z,87.48
2018-09-05T00:30:36.724Z,87.76
2018-09-05T00:31:36.825Z,87.38
2018-09-05T00:32:36.774Z,87.86
2018-09-05T00:33:57.827Z,87.57
2018-09-05T00:34:36.829Z,87.96
2018-09-05T00:35:36.876Z,87.86
2018-09-05T00:36:36.904Z,87.96
2018-09-05T00:37:36.914Z,88.06
2018-09-05T00:38:36.965Z,87.67
2018-09-05T00:39:57.988Z,87.86
2018-09-05T00:40:36.997Z,88.06
2018-09-05T00:41:37.029Z,87.76
2018-09-05T00:42:37.070Z,87.57
2018-09-05T00:43:37.094Z,88.06
2018-09-05T00:44:37.131Z,87.96
2018-09-05T00:45:58.158Z,88.06
2018-09-05T00:46:37.177Z,87.29
2018-09-05T00:47:37.188Z,87.48
2018-09-05T00:48:37.228Z,87.67
2018-09-05T00:49:37.266Z,86.90
2018-09-05T00:50:37.284Z,87.09
2018-09-05T00:51:58.342Z,87.09
2018-09-05T00:52:37.332Z,87.67
2018-09-05T00:53:37.449Z,87.57
2018-09-05T00:54:37.398Z,87.67
2018-09-05T00:55:37.436Z,87.48
2018-09-05T00:56:37.457Z,87.48
2018-09-05T00:57:58.503Z,87.67
2018-09-05T00:58:37.507Z,87.76
2018-09-05T00:59:37.535Z,87.09
2018-09-05T01:00:37.559Z,87.76
2018-09-05T01:01:37.589Z,87.57
2018-09-05T01:02:37.624Z,87.57
2018-09-05T01:03:58.687Z,87.57
2018-09-05T01:04:37.675Z,87.67
2018-09-05T01:05:37.698Z,87.48
2018-09-05T01:06:37.727Z,87.57
2018-09-05T01:07:37.761Z,87.82
2018-09-05T01:08:37.787Z,87.57
2018-09-05T01:09:58.831Z,87.82
2018-09-05T01:10:37.851Z,87.82
2018-09-05T01:11:37.870Z,88.39
2018-09-05T01:12:37.900Z,88.39
2018-09-05T01:13:37.926Z,88.20
2018-09-05T01:14:37.960Z,88.49
2018-09-05T01:15:59.005Z,88.49
2018-09-05T01:16:38.010Z,88.39
2018-09-05T01:17:38.045Z,88.20
2018-09-05T01:18:38.075Z,88.10
2018-09-05T01:19:38.097Z,88.78
2018-09-05T01:20:38.123Z,88.78
2018-09-05T01:21:59.178Z,88.39
2018-09-05T01:22:38.197Z,88.78
2018-09-05T01:23:38.201Z,88.97
2018-09-05T01:24:38.233Z,88.97
2018-09-05T01:25:38.275Z,89.07
2018-09-05T01:26:38.289Z,88.97
2018-09-05T01:27:59.338Z,88.78
2018-09-05T01:28:38.345Z,88.87
2018-09-05T01:29:38.375Z,88.68
2018-09-05T01:30:38.403Z,88.78
2018-09-05T01:31:38.428Z,88.49
2018-09-05T01:32:38.462Z,88.49
2018-09-05T01:33:59.506Z,88.59
2018-09-05T01:34:38.519Z,88.87
2018-09-05T01:35:38.554Z,89.16
2018-09-05T01:36:38.575Z,89.07
2018-09-05T01:37:38.603Z,88.68
2018-09-05T01:38:38.625Z,89.54
2018-09-05T01:39:59.679Z,89.45
2018-09-05T01:40:38.690Z,89.83
2018-09-05T01:41:38.706Z,89.36
2018-09-05T01:42:38.745Z,89.93
2018-09-05T01:43:38.787Z,90.03
2018-09-05T01:44:38.802Z,89.64
2018-09-05T01:45:59.846Z,89.89
2018-09-05T01:46:38.900Z,89.74
2018-09-05T01:47:38.883Z,90.41
2018-09-05T01:48:38.920Z,89.89
2018-09-05T01:49:38.932Z,90.46
2018-09-05T01:50:38.967Z,90.46
2018-09-05T01:52:00.013Z,90.27
2018-09-05T01:52:39.020Z,90.08
2018-09-05T01:53:39.049Z,90.46
2018-09-05T01:54:39.077Z,90.41
2018-09-05T01:55:39.150Z,90.66
2018-09-05T01:56:39.150Z,90.27
2018-09-05T01:58:00.185Z,90.08
2018-09-05T01:58:39.189Z,90.17
2018-09-05T01:59:39.206Z,90.08
2018-09-05T02:00:39.245Z,89.83
2018-09-05T02:01:39.286Z,89.83
2018-09-05T02:02:39.301Z,89.98
2018-09-05T02:04:00.348Z,90.08
2018-09-05T02:04:39.359Z,90.56
2018-09-05T02:05:39.380Z,90.12
2018-09-05T02:06:39.429Z,90.41
2018-09-05T02:07:39.441Z,90.31
2018-09-05T02:08:39.470Z,90.80
2018-09-05T02:10:00.524Z,90.12
2018-09-05T02:10:39.522Z,90.46
2018-09-05T02:11:39.559Z,90.46
2018-09-05T02:12:39.582Z,90.46
2018-09-05T02:13:39.610Z,90.84
2018-09-05T02:14:39.632Z,90.75
2018-09-05T02:16:00.689Z,91.23
2018-09-05T02:16:39.696Z,90.84
2018-09-05T02:17:39.716Z,90.66
2018-09-05T02:18:39.755Z,91.52
2018-09-05T02:19:39.790Z,92.00
2018-09-05T02:20:39.798Z,91.33
2018-09-05T02:22:00.873Z,92.29
2018-09-05T02:22:39.854Z,91.23
2018-09-05T02:23:39.890Z,91.81
2018-09-05T02:24:39.918Z,92.10
2018-09-05T02:25:39.954Z,92.00
2018-09-05T02:26:39.983Z,91.71
2018-09-05T02:28:01.045Z,92.29
2018-09-05T02:28:40.030Z,92.00
2018-09-05T02:29:40.057Z,92.10
2018-09-05T02:30:40.086Z,92.00
2018-09-05T02:31:40.120Z,92.29
2018-09-05T02:32:40.139Z,92.10
2018-09-05T02:34:01.184Z,91.61
2018-09-05T02:34:40.213Z,92.00
2018-09-05T02:35:40.216Z,92.00
2018-09-05T02:36:40.254Z,91.90
2018-09-05T02:37:40.285Z,92.57
2018-09-05T02:38:40.300Z,93.05
2018-09-05T02:40:01.345Z,92.77
2018-09-05T02:40:40.395Z,92.57
2018-09-05T02:41:40.392Z,93.05
2018-09-05T02:42:40.417Z,92.48
2018-09-05T02:43:40.440Z,92.96
2018-09-05T02:44:40.470Z,92.96
2018-09-05T02:46:01.540Z,93.34
2018-09-05T02:46:40.544Z,93.15
2018-09-05T02:47:40.554Z,93.15
2018-09-05T02:48:40.581Z,93.05
2018-09-05T02:49:40.613Z,93.05
2018-09-05T02:50:40.644Z,93.73
2018-09-05T02:52:01.681Z,93.25
2018-09-05T02:52:40.703Z,93.82
2018-09-05T02:53:40.718Z,93.63
2018-09-05T02:54:40.748Z,93.54
2018-09-05T02:55:40.774Z,93.34
2018-09-05T02:56:40.803Z,93.44
2018-09-05T02:58:01.889Z,93.44
2018-09-05T02:58:40.861Z,93.44
2018-09-05T02:59:40.905Z,93.25
2018-09-05T03:00:40.920Z,93.05
2018-09-05T03:01:40.942Z,92.96
2018-09-05T03:02:40.977Z,93.44
2018-09-05T03:04:02.018Z,93.63
2018-09-05T03:04:41.028Z,93.92
2018-09-05T03:05:41.052Z,93.73
2018-09-05T03:06:41.113Z,93.92
2018-09-05T03:07:41.122Z,93.82
2018-09-05T03:08:41.246Z,93.73
2018-09-05T03:10:02.196Z,93.92
2018-09-05T03:10:41.191Z,94.21
2018-09-05T03:11:41.228Z,94.01
2018-09-05T03:12:41.256Z,93.92
2018-09-05T03:13:41.277Z,94.21
2018-09-05T03:14:41.310Z,93.82
2018-09-05T03:16:02.351Z,94.11
2018-09-05T03:16:41.368Z,94.11
2018-09-05T03:17:41.404Z,94.01
2018-09-05T03:18:41.414Z,94.40
2018-09-05T03:19:41.526Z,94.49
2018-09-05T03:20:41.480Z,94.78
2018-09-05T03:22:02.519Z,94.88
2018-09-05T03:22:41.532Z,94.31
2018-09-05T03:23:41.557Z,94.98
2018-09-05T03:24:41.581Z,94.88
2018-09-05T03:25:41.636Z,94.40
2018-09-05T03:26:41.641Z,94.78
2018-09-05T03:28:02.720Z,94.49
2018-09-05T03:28:41.692Z,94.98
2018-09-05T03:29:41.724Z,94.31
2018-09-05T03:30:41.757Z,94.01
2018-09-05T03:31:41.772Z,94.59
2018-09-05T03:32:41.896Z,94.40
2018-09-05T03:34:02.851Z,94.31
2018-09-05T03:34:41.870Z,94.21
2018-09-05T03:35:41.898Z,94.40
2018-09-05T03:36:41.933Z,94.59
2018-09-05T03:37:41.952Z,94.40
2018-09-05T03:38:41.970Z,94.31
2018-09-05T03:40:03.019Z,94.21
2018-09-05T03:40:42.036Z,94.31
2018-09-05T03:41:42.059Z,94.31
2018-09-05T03:42:42.086Z,94.40
2018-09-05T03:43:42.105Z,94.88
2018-09-05T03:44:42.140Z,94.40
2018-09-05T03:46:03.179Z,95.07
2018-09-05T03:46:42.195Z,94.69
2018-09-05T03:47:42.229Z,94.21
2018-09-05T03:48:42.251Z,94.40
2018-09-05T03:49:42.318Z,94.78
2018-09-05T03:50:42.315Z,94.78
2018-09-05T03:52:03.353Z,94.88
2018-09-05T03:52:42.370Z,94.49
2018-09-05T03:53:42.388Z,94.31
2018-09-05T03:54:42.424Z,94.78
2018-09-05T03:55:42.462Z,94.59
2018-09-05T03:56:42.486Z,95.65
2018-09-05T03:58:03.533Z,95.17
2018-09-05T03:58:42.529Z,95.17
2018-09-05T03:59:42.557Z,95.55
2018-09-05T04:00:42.591Z,95.65
2018-09-05T04:01:42.611Z,94.98
2018-09-05T04:02:42.640Z,95.17
2018-09-05T04:04:03.681Z,95.36
2018-09-05T04:04:42.702Z,94.98
2018-09-05T04:05:42.725Z,95.45
2018-09-05T04:06:42.750Z,95.17
2018-09-05T04:07:42.787Z,95.55
2018-09-05T04:08:42.808Z,94.98
2018-09-05T04:10:03.853Z,94.78
2018-09-05T04:10:42.944Z,95.26
2018-09-05T04:11:42.887Z,95.26
2018-09-05T04:12:42.924Z,94.78
2018-09-05T04:13:42.950Z,94.78
2018-09-05T04:14:42.972Z,94.98
2018-09-05T04:16:04.011Z,95.17
2018-09-05T04:16:43.026Z,94.59
2018-09-05T04:17:43.058Z,94.78
2018-09-05T04:18:43.085Z,94.78
2018-09-05T04:19:43.123Z,95.55
2018-09-05T04:20:43.143Z,95.55
2018-09-05T04:22:04.196Z,95.17
2018-09-05T04:22:43.196Z,94.78
2018-09-05T04:23:43.224Z,95.26
2018-09-05T04:24:43.249Z,95.07
2018-09-05T04:25:43.296Z,94.69
2018-09-05T04:26:43.310Z,94.69
2018-09-05T04:28:04.371Z,94.78
2018-09-05T04:28:43.376Z,94.49
2018-09-05T04:29:43.403Z,94.49
2018-09-05T04:30:43.450Z,94.98
2018-09-05T04:31:43.455Z,94.88
2018-09-05T04:32:43.483Z,94.88
2018-09-05T04:34:04.529Z,95.55
2018-09-05T04:34:43.520Z,95.55
2018-09-05T04:35:43.559Z,94.69
2018-09-05T04:36:43.582Z,95.55
2018-09-05T04:37:43.621Z,95.07
2018-09-05T04:38:43.643Z,95.36
2018-09-05T04:40:04.687Z,95.65
2018-09-05T04:40:43.696Z,94.88
2018-09-05T04:41:43.722Z,94.69
2018-09-05T04:42:43.750Z,94.88
2018-09-05T04:43:43.785Z,94.78
2018-09-05T04:44:43.799Z,94.59
2018-09-05T04:46:04.858Z,94.98
2018-09-05T04:46:43.860Z,94.88
2018-09-05T04:47:43.884Z,95.45
2018-09-05T04:48:43.919Z,94.98
2018-09-05T04:49:43.944Z,95.55
2018-09-05T04:50:43.968Z,95.45
2018-09-05T04:52:05.087Z,95.26
2018-09-05T04:52:44.116Z,95.17
2018-09-05T04:53:44.058Z,95.17
2018-09-05T04:54:44.087Z,95.17
2018-09-05T04:55:44.119Z,95.36
2018-09-05T04:56:44.162Z,95.55
2018-09-05T04:58:05.186Z,95.26
2018-09-05T04:58:44.196Z,95.07
2018-09-05T04:59:44.216Z,94.98
2018-09-05T05:00:44.263Z,94.88
2018-09-05T05:01:44.279Z,95.36
2018-09-05T05:02:44.304Z,95.26
2018-09-05T05:04:05.356Z,95.17
2018-09-05T05:04:44.365Z,95.55
2018-09-05T05:05:44.418Z,94.88
2018-09-05T05:06:44.415Z,94.78
2018-09-05T05:07:44.442Z,94.40
2018-09-05T05:08:44.519Z,94.69
2018-09-05T05:10:05.531Z,95.65
2018-09-05T05:10:44.547Z,95.65
2018-09-05T05:11:44.562Z,95.36
2018-09-05T05:12:44.674Z,94.88
2018-09-05T05:13:44.625Z,94.69
2018-09-05T05:14:44.641Z,94.31
2018-09-05T05:16:05.686Z,94.78
2018-09-05T05:16:44.699Z,94.40
2018-09-05T05:17:44.719Z,94.88
2018-09-05T05:18:44.750Z,94.69
2018-09-05T05:19:44.770Z,95.07
2018-09-05T05:20:44.805Z,95.55
2018-09-05T05:22:05.864Z,95.36
2018-09-05T05:22:44.867Z,94.69
2018-09-05T05:23:44.997Z,94.40
2018-09-05T05:24:44.916Z,94.78
2018-09-05T05:25:44.957Z,94.98
2018-09-05T05:26:44.977Z,94.78
2018-09-05T05:28:06.042Z,94.98
2018-09-05T05:28:45.024Z,94.21
2018-09-05T05:29:45.050Z,94.45
2018-09-05T05:30:45.085Z,94.21
2018-09-05T05:31:45.120Z,94.31
2018-09-05T05:32:45.344Z,94.78
2018-09-05T05:34:06.193Z,94.40
2018-09-05T05:34:45.265Z,94.31
2018-09-05T05:35:45.268Z,94.83
2018-09-05T05:36:45.239Z,94.73
2018-09-05T05:37:45.274Z,94.31
2018-09-05T05:38:45.313Z,94.69
2018-09-05T05:40:06.390Z,94.31
2018-09-05T05:40:45.366Z,94.40
2018-09-05T05:41:45.406Z,94.59
2018-09-05T05:42:45.409Z,94.31
2018-09-05T05:43:45.534Z,94.35
2018-09-05T05:44:45.467Z,94.49
2018-09-05T05:46:06.515Z,94.69
2018-09-05T05:46:45.700Z,94.40
2018-09-05T05:47:45.554Z,94.49
2018-09-05T05:48:45.586Z,94.16
2018-09-05T05:49:45.614Z,94.73
2018-09-05T05:50:45.960Z,93.68
2018-09-05T05:52:06.694Z,93.96
2018-09-05T05:52:45.694Z,94.06
2018-09-05T05:53:45.725Z,94.26
2018-09-05T05:54:45.747Z,94.45
2018-09-05T05:55:45.933Z,94.45
2018-09-05T05:56:45.814Z,93.68
2018-09-05T05:58:06.851Z,94.54
2018-09-05T05:58:45.861Z,94.54
2018-09-05T05:59:45.879Z,94.21
2018-09-05T06:00:45.987Z,94.35
2018-09-05T06:01:45.980Z,93.87
2018-09-05T06:02:45.972Z,94.45
2018-09-05T06:04:07.008Z,94.64
2018-09-05T06:04:46.029Z,94.73
2018-09-05T06:05:46.060Z,94.16
2018-09-05T06:06:46.113Z,94.26
2018-09-05T06:07:46.115Z,93.68
2018-09-05T06:08:46.154Z,93.77
2018-09-05T06:10:07.185Z,93.10
2018-09-05T06:10:46.193Z,93.77
2018-09-05T06:11:46.218Z,93.58
2018-09-05T06:12:46.241Z,93.77
2018-09-05T06:13:46.273Z,93.49
2018-09-05T06:14:46.319Z,93.68
2018-09-05T06:16:07.350Z,93.10
2018-09-05T06:16:46.357Z,92.81
2018-09-05T06:17:46.384Z,93.29
2018-09-05T06:18:46.463Z,93.58
2018-09-05T06:19:46.522Z,93.10
2018-09-05T06:20:46.465Z,93.58
2018-09-05T06:22:07.518Z,93.01
2018-09-05T06:22:46.545Z,92.91
2018-09-05T06:23:46.680Z,93.29
2018-09-05T06:24:46.595Z,93.01
2018-09-05T06:25:46.729Z,93.10
2018-09-05T06:26:46.643Z,93.10
2018-09-05T06:28:07.687Z,93.68
2018-09-05T06:28:46.695Z,93.19
2018-09-05T06:29:46.711Z,93.01
2018-09-05T06:30:46.832Z,93.29
2018-09-05T06:31:46.774Z,93.77
2018-09-05T06:32:46.829Z,92.52
2018-09-05T06:34:07.871Z,93.10
2018-09-05T06:34:46.938Z,93.10
2018-09-05T06:35:46.890Z,93.29
2018-09-05T06:36:46.943Z,93.01
2018-09-05T06:37:46.953Z,92.86
2018-09-05T06:38:46.970Z,92.29
2018-09-05T06:40:08.012Z,92.09
2018-09-05T06:40:47.039Z,92.19
2018-09-05T06:41:47.050Z,92.19
2018-09-05T06:42:47.096Z,92.29
2018-09-05T06:43:47.112Z,92.09
2018-09-05T06:44:47.126Z,91.90
2018-09-05T06:46:08.183Z,91.80
2018-09-05T06:46:47.197Z,92.19
2018-09-05T06:47:47.276Z,92.29
2018-09-05T06:48:47.288Z,92.47
2018-09-05T06:49:47.273Z,92.09
2018-09-05T06:50:47.304Z,91.99
2018-09-05T06:52:08.339Z,91.90
2018-09-05T06:52:47.349Z,92.09
2018-09-05T06:53:47.389Z,92.19
2018-09-05T06:54:47.420Z,91.80
2018-09-05T06:55:47.443Z,91.61
2018-09-05T06:56:47.514Z,92.19
2018-09-05T06:58:08.528Z,92.19
2018-09-05T06:58:47.542Z,91.42
2018-09-05T06:59:47.572Z,91.61
2018-09-05T07:00:47.575Z,90.94
2018-09-05T07:01:47.610Z,90.65
2018-09-05T07:02:47.627Z,90.75
2018-09-05T07:04:08.683Z,91.52
2018-09-05T07:04:47.699Z,91.32
2018-09-05T07:05:47.719Z,91.32
2018-09-05T07:06:47.756Z,91.61
2018-09-05T07:07:47.778Z,91.52
2018-09-05T07:08:47.901Z,91.42
2018-09-05T07:10:08.859Z,91.42
2018-09-05T07:10:47.858Z,90.75
2018-09-05T07:11:47.895Z,90.55
2018-09-05T07:12:47.929Z,90.41
2018-09-05T07:13:47.937Z,90.12
2018-09-05T07:14:47.971Z,90.55
2018-09-05T07:16:09.036Z,90.59
2018-09-05T07:16:48.025Z,90.79
2018-09-05T07:17:48.050Z,90.98
2018-09-05T07:18:48.076Z,90.41
2018-09-05T07:19:48.124Z,90.50
2018-09-05T07:20:48.139Z,89.64
2018-09-05T07:22:09.228Z,90.02
2018-09-05T07:22:48.205Z,89.64
2018-09-05T07:23:48.227Z,89.73
2018-09-05T07:24:48.298Z,89.92
2018-09-05T07:25:48.272Z,89.83
2018-09-05T07:26:48.303Z,89.64
2018-09-05T07:28:09.369Z,90.02
2018-09-05T07:28:48.355Z,89.73
2018-09-05T07:29:48.392Z,89.92
2018-09-05T07:30:48.531Z,89.35
2018-09-05T07:31:48.442Z,89.73
2018-09-05T07:32:48.471Z,89.20
2018-09-05T07:34:09.519Z,88.91
2018-09-05T07:34:48.535Z,88.91
2018-09-05T07:35:48.552Z,88.62
2018-09-05T07:36:48.595Z,88.43
2018-09-05T07:37:48.606Z,87.85
2018-09-05T07:38:48.633Z,88.71
2018-09-05T07:40:09.701Z,87.95
2018-09-05T07:40:48.689Z,87.46
2018-09-05T07:41:48.753Z,88.24
2018-09-05T07:42:48.741Z,88.71
2018-09-05T07:43:48.798Z,88.81
2018-09-05T07:44:48.811Z,88.71
2018-09-05T07:46:09.852Z,88.43
2018-09-05T07:46:48.874Z,88.33
2018-09-05T07:47:48.913Z,87.85
2018-09-05T07:48:48.915Z,87.66
2018-09-05T07:49:48.953Z,88.14
2018-09-05T07:50:49.029Z,87.56
2018-09-05T07:52:10.020Z,87.76
2018-09-05T07:52:49.030Z,87.18
2018-09-05T07:53:49.054Z,86.69
2018-09-05T07:54:49.094Z,87.18
2018-09-05T07:55:49.131Z,87.27
2018-09-05T07:56:49.137Z,87.22
2018-09-05T07:58:10.203Z,86.55
2018-09-05T07:58:49.215Z,86.55
2018-09-05T07:59:49.228Z,86.93
2018-09-05T08:00:49.295Z,86.93
2018-09-05T08:01:49.284Z,86.41
2018-09-05T08:02:49.397Z,86.83
2018-09-05T08:04:10.350Z,86.16
2018-09-05T08:04:49.370Z,86.16
2018-09-05T08:05:49.401Z,86.21
2018-09-05T08:06:49.413Z,85.63
2018-09-05T08:07:49.468Z,85.34
2018-09-05T08:08:49.501Z,85.34
2018-09-05T08:10:10.542Z,84.47
2018-09-05T08:10:49.535Z,84.42
2018-09-05T08:11:49.609Z,84.61
2018-09-05T08:12:49.598Z,83.94
2018-09-05T08:13:49.635Z,83.26
2018-09-05T08:14:49.650Z,82.68
2018-09-05T08:16:10.692Z,82.01
2018-09-05T08:16:49.714Z,81.72
2018-09-05T08:17:49.740Z,82.20
2018-09-05T08:18:49.768Z,81.37
2018-09-05T08:19:49.779Z,81.76
2018-09-05T08:20:49.826Z,81.76
2018-09-05T08:22:10.866Z,81.66
2018-09-05T08:22:49.879Z,81.66
2018-09-05T08:23:49.898Z,81.18
2018-09-05T08:24:49.927Z,81.18
2018-09-05T08:25:49.968Z,80.69
2018-09-05T08:26:49.982Z,81.66
2018-09-05T08:28:11.044Z,80.31
2018-09-05T08:28:50.061Z,80.51
2018-09-05T08:29:50.064Z,79.64
2018-09-05T08:30:50.100Z,79.58
2018-09-05T08:31:50.124Z,78.85
2018-09-05T08:32:50.156Z,77.40
2018-09-05T08:34:11.203Z,75.70
2018-09-05T08:34:50.353Z,75.31
2018-09-05T08:35:50.486Z,74.96
2018-09-05T08:36:50.496Z,73.90
2018-09-05T08:37:50.428Z,73.22
2018-09-05T08:38:50.332Z,72.64
2018-09-05T08:40:11.383Z,73.26
2018-09-05T08:40:50.394Z,71.33
2018-09-05T08:41:50.460Z,71.36
2018-09-05T08:42:50.502Z,70.59
2018-09-05T08:43:50.573Z,70.01
2018-09-05T08:44:50.817Z,69.92
2018-09-05T08:46:11.710Z,70.40
2018-09-05T08:46:50.627Z,70.04
2018-09-05T08:47:50.673Z,69.17
2018-09-05T08:48:50.616Z,68.43
2018-09-05T08:49:50.647Z,67.14
2018-09-05T08:50:50.674Z,68.11
2018-09-05T08:52:11.718Z,67.66
2018-09-05T08:52:50.815Z,67.53
2018-09-05T08:53:50.753Z,67.46
2018-09-05T08:54:50.791Z,66.60
2018-09-05T08:55:50.885Z,66.78
2018-09-05T08:56:50.836Z,67.27
2018-09-05T08:58:11.912Z,66.37
2018-09-05T08:58:50.990Z,68.27
2018-09-05T08:59:50.931Z,68.95
2018-09-05T09:00:51.018Z,68.85
2018-09-05T09:01:50.983Z,69.30
2018-09-05T09:02:51.082Z,70.56
2018-09-05T09:04:12.063Z,70.90
2018-09-05T09:04:51.122Z,71.30
2018-09-05T09:05:51.090Z,71.88
2018-09-05T09:06:51.128Z,71.48
2018-09-05T09:07:51.163Z,71.97
2018-09-05T09:08:51.183Z,72.32
2018-09-05T09:10:12.228Z,72.16
2018-09-05T09:10:51.233Z,72.74
2018-09-05T09:11:52.068Z,72.06
2018-09-05T09:12:51.300Z,71.88
2018-09-05T09:13:51.345Z,72.10
2018-09-05T09:14:51.373Z,71.30
2018-09-05T09:16:12.410Z,71.30
2018-09-05T09:16:51.417Z,71.30
2018-09-05T09:17:51.469Z,71.33
2018-09-05T09:18:51.489Z,71.33
2018-09-05T09:19:51.505Z,71.26
2018-09-05T09:20:51.617Z,71.26
2018-09-05T09:22:12.582Z,70.07
2018-09-05T09:22:51.641Z,70.68
2018-09-05T09:23:51.623Z,69.92
2018-09-05T09:24:51.651Z,69.14
2018-09-05T09:25:51.698Z,68.95
2018-09-05T09:26:51.725Z,67.43
2018-09-05T09:28:12.785Z,67.82
2018-09-05T09:28:51.775Z,66.56
2018-09-05T09:29:51.800Z,66.75
2018-09-05T09:30:51.836Z,66.40
2018-09-05T09:31:51.858Z,65.53
2018-09-05T09:32:51.879Z,65.72
2018-09-05T09:34:12.941Z,65.43
2018-09-05T09:34:51.955Z,64.95
2018-09-05T09:35:51.971Z,65.05
2018-09-05T09:36:52.000Z,64.66
2018-09-05T09:37:52.018Z,65.40
2018-09-05T09:38:52.060Z,65.98
2018-09-05T09:40:13.120Z,66.75
2018-09-05T09:40:52.107Z,67.40
2018-09-05T09:41:52.140Z,66.85
2018-09-05T09:42:52.181Z,66.56
2018-09-05T09:43:52.203Z,66.37
2018-09-05T09:44:52.229Z,65.43
2018-09-05T09:46:13.274Z,65.08
2018-09-05T09:46:52.289Z,64.30
2018-09-05T09:47:52.315Z,63.37
2018-09-05T09:48:52.350Z,62.88
2018-09-05T09:49:52.394Z,62.20
2018-09-05T09:50:52.407Z,62.20
2018-09-05T09:52:13.451Z,61.07
2018-09-05T09:52:52.470Z,61.29
2018-09-05T09:53:52.502Z,60.74
2018-09-05T09:54:52.529Z,59.38
2018-09-05T09:55:52.572Z,60.64
2018-09-05T09:56:52.593Z,59.87
2018-09-05T09:58:13.629Z,59.64
2018-09-05T09:58:52.656Z,59.67
2018-09-05T09:59:52.681Z,59.87
2018-09-05T10:00:52.697Z,59.70
2018-09-05T10:01:52.727Z,58.86
2018-09-05T10:02:52.764Z,56.41
2018-09-05T10:04:13.813Z,55.80
2018-09-05T10:04:52.838Z,56.30
2018-09-05T10:05:52.865Z,58.48
2018-09-05T10:06:52.928Z,59.42
2018-09-05T10:07:52.923Z,59.74
2018-09-05T10:08:52.953Z,59.74
2018-09-05T10:10:14.272Z,59.38
2018-09-05T10:10:53.003Z,59.55
2018-09-05T10:11:53.046Z,59.55
2018-09-05T10:12:53.061Z,60.03
2018-09-05T10:13:53.096Z,60.10
2018-09-05T10:14:53.228Z,60.81
2018-09-05T10:16:14.167Z,60.74
2018-09-05T10:16:53.179Z,58.83
2018-09-05T10:17:53.218Z,57.69
2018-09-05T10:18:53.244Z,57.79
2018-09-05T10:19:53.269Z,56.95
2018-09-05T10:20:54.124Z,56.36
2018-09-05T10:22:14.350Z,56.46
2018-09-05T10:22:53.356Z,56.46
2018-09-05T10:23:53.396Z,56.65
2018-09-05T10:24:53.416Z,55.71
2018-09-05T10:25:53.467Z,55.15
2018-09-05T10:26:53.496Z,55.47
2018-09-05T10:28:14.529Z,54.08
2018-09-05T10:28:53.539Z,53.45
2018-09-05T10:29:53.654Z,53.19
2018-09-05T10:30:53.603Z,52.38
2018-09-05T10:31:53.659Z,52.28
2018-09-05T10:32:53.670Z,52.14
2018-09-05T10:34:14.733Z,51.39
2018-09-05T10:34:53.731Z,50.29
2018-09-05T10:35:53.756Z,50.53
2018-09-05T10:36:53.793Z,49.46
2018-09-05T10:37:53.817Z,48.54
2018-09-05T10:38:53.853Z,46.19
2018-09-05T10:40:14.916Z,46.83
2018-09-05T10:40:53.931Z,48.19
2018-09-05T10:41:53.942Z,48.07
2018-09-05T10:42:53.979Z,48.14
2018-09-05T10:43:54.000Z,48.63
2018-09-05T10:44:54.042Z,49.07
2018-09-05T10:46:15.092Z,46.97
2018-09-05T10:46:54.102Z,48.46
2018-09-05T10:47:54.141Z,50.24
2018-09-05T10:48:54.165Z,52.50
2018-09-05T10:49:54.196Z,54.71
2018-09-05T10:50:54.220Z,55.19
2018-09-05T10:52:15.276Z,55.65
2018-09-05T10:52:54.290Z,55.73
2018-09-05T10:53:54.331Z,56.18
2018-09-05T10:54:54.346Z,57.51
2018-09-05T10:55:54.386Z,58.16
2018-09-05T10:56:54.409Z,58.81
2018-09-05T10:58:15.630Z,59.75
2018-09-05T10:58:54.477Z,60.52
2018-09-05T10:59:54.509Z,60.82
2018-09-05T11:00:54.536Z,60.91
2018-09-05T11:01:54.571Z,60.91
2018-09-05T11:02:54.602Z,61.69
2018-09-05T11:04:15.654Z,62.24
2018-09-05T11:04:54.651Z,61.56
2018-09-05T11:05:54.684Z,62.82
2018-09-05T11:06:54.718Z,62.53
2018-09-05T11:07:54.751Z,62.72
2018-09-05T11:08:54.785Z,61.36
2018-09-05T11:10:15.844Z,61.27
2018-09-05T11:10:54.906Z,61.82
2018-09-05T11:11:54.875Z,61.72
2018-09-05T11:12:54.900Z,62.50
2018-09-05T11:13:54.935Z,62.21
2018-09-05T11:14:54.963Z,62.04
2018-09-05T11:16:16.036Z,61.18
2018-09-05T11:16:55.032Z,62.24
2018-09-05T11:17:55.058Z,62.24
2018-09-05T11:18:55.104Z,60.33
2018-09-05T11:19:55.111Z,60.69
2018-09-05T11:20:55.176Z,61.27
2018-09-05T11:22:16.188Z,61.76
2018-09-05T11:22:55.208Z,61.76
2018-09-05T11:23:55.224Z,61.95
2018-09-05T11:24:55.270Z,62.34
2018-09-05T11:25:55.316Z,61.85
2018-09-05T11:26:55.338Z,62.30
2018-09-05T11:28:16.384Z,61.43
2018-09-05T11:28:55.386Z,61.92
2018-09-05T11:29:55.425Z,61.60
2018-09-05T11:30:55.447Z,62.47
2018-09-05T11:31:55.485Z,62.18
2018-09-05T11:32:55.496Z,62.85
2018-09-05T11:34:16.545Z,62.37
2018-09-05T11:34:55.555Z,62.56
2018-09-05T11:35:55.585Z,62.37
2018-09-05T11:36:55.661Z,61.98
2018-09-05T11:37:55.657Z,62.18
2018-09-05T11:38:56.628Z,62.76
2018-09-05T11:40:16.733Z,62.66
2018-09-05T11:40:55.743Z,62.18
2018-09-05T11:41:55.766Z,62.76
2018-09-05T11:42:55.802Z,62.66
2018-09-05T11:43:55.826Z,63.43
2018-09-05T11:44:55.857Z,62.76
2018-09-05T11:46:16.909Z,63.53
2018-09-05T11:46:55.919Z,63.53
2018-09-05T11:47:55.950Z,63.53
2018-09-05T11:48:55.977Z,63.43
2018-09-05T11:49:56.015Z,63.14
2018-09-05T11:50:56.034Z,63.24
2018-09-05T11:52:17.083Z,62.76
2018-09-05T11:52:56.092Z,63.24
2018-09-05T11:53:56.126Z,62.50
2018-09-05T11:54:56.154Z,63.18
2018-09-05T11:55:56.191Z,62.98
2018-09-05T11:56:56.212Z,62.50
2018-09-05T11:58:17.354Z,62.01
2018-09-05T11:58:56.284Z,62.79
2018-09-05T11:59:56.313Z,62.79
2018-09-05T12:00:56.341Z,62.30
2018-09-05T12:01:56.373Z,62.21
2018-09-05T12:02:56.399Z,61.82
2018-09-05T12:04:17.448Z,61.33
2018-09-05T12:04:56.500Z,61.05
2018-09-05T12:05:56.483Z,61.63
2018-09-05T12:06:56.532Z,60.75
2018-09-05T12:07:56.534Z,62.30
2018-09-05T12:08:56.577Z,61.72
2018-09-05T12:10:17.614Z,61.33
2018-09-05T12:10:56.636Z,61.82
2018-09-05T12:11:56.667Z,62.30
2018-09-05T12:12:56.693Z,61.33
2018-09-05T12:13:56.717Z,61.82
2018-09-05T12:14:56.775Z,60.82
2018-09-05T12:16:17.791Z,61.11
2018-09-05T12:16:56.813Z,61.24
2018-09-05T12:17:56.852Z,61.79
2018-09-05T12:18:56.873Z,62.59
2018-09-05T12:19:56.906Z,61.63
2018-09-05T12:20:56.937Z,61.43
2018-09-05T12:22:17.979Z,61.05
2018-09-05T12:22:56.977Z,61.53
2018-09-05T12:23:57.012Z,61.02
2018-09-05T12:24:57.039Z,59.21
2018-09-05T12:25:57.069Z,59.40
2018-09-05T12:26:57.119Z,61.05
2018-09-05T12:28:18.147Z,61.46
2018-09-05T12:28:57.176Z,61.05
2018-09-05T12:29:57.285Z,60.66
2018-09-05T12:30:57.215Z,59.72
2018-09-05T12:31:57.250Z,59.43
2018-09-05T12:32:57.286Z,59.82
2018-09-05T12:34:18.325Z,59.33
2018-09-05T12:34:57.393Z,59.21
2018-09-05T12:35:57.413Z,59.40
2018-09-05T12:36:57.446Z,60.17
2018-09-05T12:37:57.438Z,60.37
2018-09-05T12:38:57.606Z,59.40
2018-09-05T12:40:18.501Z,59.79
2018-09-05T12:40:57.538Z,60.37
2018-09-05T12:41:57.547Z,60.37
2018-09-05T12:42:57.591Z,60.75
2018-09-05T12:43:57.620Z,60.37
2018-09-05T12:44:57.633Z,60.57
2018-09-05T12:46:18.698Z,61.24
2018-09-05T12:46:57.703Z,61.11
2018-09-05T12:47:57.762Z,61.21
2018-09-05T12:48:57.754Z,61.02
2018-09-05T12:49:57.798Z,61.11
2018-09-05T12:50:57.824Z,61.30
2018-09-05T12:52:18.872Z,60.82
2018-09-05T12:52:57.880Z,61.02